sensor_id;sensor_type;location;lat;lon;timestamp;temperature;humidity
44487;DHT22;30191;50.908;6.962;2024-02-28T00:00:00;5.90;99.90
44487;DHT22;30191;50.908;6.962;2024-02-28T00:02:26;5.90;99.90
44487;DHT22;30191;50.908;6.962;2024-02-28T00:04:53;5.90;99.90
44487;DHT22;30191;50.908;6.962;2024-02-28T00:07:19;5.90;99.90
44487;DHT22;30191;50.908;6.962;2024-02-28T00:09:44;5.80;99.90
44487;DHT22;30191;50.908;6.962;2024-02-28T00:12:10;5.80;99.90
44487;DHT22;30191;50.908;6.962;2024-02-28T00:14:35;5.80;99.90
44487;DHT22;30191;50.908;6.962;2024-02-28T00:17:01;5.80;99.90
44487;DHT22;30191;50.908;6.962;2024-02-28T00:19:27;5.80;99.90
44487;DHT22;30191;50.908;6.962;2024-02-28T00:21:52;5.80;99.90
44487;DHT22;30191;50.908;6.962;2024-02-28T00:24:18;5.80;99.90
44487;DHT22;30191;50.908;6.962;2024-02-28T00:26:43;5.80;99.90
44487;DHT22;30191;50.908;6.962;2024-02-28T00:29:12;5.80;99.90
44487;DHT22;30191;50.908;6.962;2024-02-28T00:31:37;5.80;99.90
44487;DHT22;30191;50.908;6.962;2024-02-28T00:34:03;5.90;99.90
44487;DHT22;30191;50.908;6.962;2024-02-28T00:36:29;5.90;99.90
44487;DHT22;30191;50.908;6.962;2024-02-28T00:38:54;5.90;99.90
44487;DHT22;30191;50.908;6.962;2024-02-28T00:41:20;5.90;99.90
44487;DHT22;30191;50.908;6.962;2024-02-28T00:43:46;5.90;99.90
44487;DHT22;30191;50.908;6.962;2024-02-28T00:46:11;6.00;99.90
44487;DHT22;30191;50.908;6.962;2024-02-28T00:48:39;5.90;99.90
44487;DHT22;30191;50.908;6.962;2024-02-28T00:51:05;6.00;99.90
44487;DHT22;30191;50.908;6.962;2024-02-28T00:53:31;6.00;99.90
44487;DHT22;30191;50.908;6.962;2024-02-28T00:55:57;6.00;99.90
44487;DHT22;30191;50.908;6.962;2024-02-28T00:58:22;6.10;99.90
44487;DHT22;30191;50.908;6.962;2024-02-28T01:00:48;6.20;99.90
44487;DHT22;30191;50.908;6.962;2024-02-28T01:03:14;6.20;99.90
44487;DHT22;30191;50.908;6.962;2024-02-28T01:05:42;6.30;99.90
44487;DHT22;30191;50.908;6.962;2024-02-28T01:08:07;6.30;99.90
44487;DHT22;30191;50.908;6.962;2024-02-28T01:10:34;6.40;99.90
44487;DHT22;30191;50.908;6.962;2024-02-28T01:12:59;6.40;99.90
44487;DHT22;30191;50.908;6.962;2024-02-28T01:15:25;6.40;99.90
44487;DHT22;30191;50.908;6.962;2024-02-28T01:17:50;6.40;99.90
44487;DHT22;30191;50.908;6.962;2024-02-28T01:20:16;6.30;99.90
44487;DHT22;30191;50.908;6.962;2024-02-28T01:22:42;6.30;99.90
44487;DHT22;30191;50.908;6.962;2024-02-28T01:25:08;6.30;99.90
44487;DHT22;30191;50.908;6.962;2024-02-28T01:27:34;6.30;99.90
44487;DHT22;30191;50.908;6.962;2024-02-28T01:30:00;6.30;99.90
44487;DHT22;30191;50.908;6.962;2024-02-28T01:32:27;6.40;99.90
44487;DHT22;30191;50.908;6.962;2024-02-28T01:34:53;6.40;99.90
44487;DHT22;30191;50.908;6.962;2024-02-28T01:37:18;6.30;99.90
44487;DHT22;30191;50.908;6.962;2024-02-28T01:39:44;6.40;99.90
44487;DHT22;30191;50.908;6.962;2024-02-28T01:42:10;6.40;99.90
44487;DHT22;30191;50.908;6.962;2024-02-28T01:44:44;6.40;99.90
44487;DHT22;30191;50.908;6.962;2024-02-28T01:47:10;6.40;99.90
44487;DHT22;30191;50.908;6.962;2024-02-28T01:49:36;6.50;99.90
44487;DHT22;30191;50.908;6.962;2024-02-28T01:52:03;6.50;99.90
44487;DHT22;30191;50.908;6.962;2024-02-28T01:54:29;6.50;99.90
44487;DHT22;30191;50.908;6.962;2024-02-28T01:56:56;6.50;99.90
44487;DHT22;30191;50.908;6.962;2024-02-28T01:59:23;6.50;99.90
44487;DHT22;30191;50.908;6.962;2024-02-28T02:01:50;6.60;99.90
44487;DHT22;30191;50.908;6.962;2024-02-28T02:04:16;6.60;99.90
44487;DHT22;30191;50.908;6.962;2024-02-28T02:06:43;6.50;99.90
44487;DHT22;30191;50.908;6.962;2024-02-28T02:09:09;6.60;99.90
44487;DHT22;30191;50.908;6.962;2024-02-28T02:11:35;6.60;99.90
44487;DHT22;30191;50.908;6.962;2024-02-28T02:14:01;6.60;99.90
44487;DHT22;30191;50.908;6.962;2024-02-28T02:16:27;6.60;99.90
44487;DHT22;30191;50.908;6.962;2024-02-28T02:18:53;6.60;99.90
44487;DHT22;30191;50.908;6.962;2024-02-28T02:21:21;6.60;99.90
44487;DHT22;30191;50.908;6.962;2024-02-28T02:23:48;6.60;99.90
44487;DHT22;30191;50.908;6.962;2024-02-28T02:26:13;6.60;99.90
44487;DHT22;30191;50.908;6.962;2024-02-28T02:28:39;6.60;99.90
44487;DHT22;30191;50.908;6.962;2024-02-28T02:31:05;6.60;99.90
44487;DHT22;30191;50.908;6.962;2024-02-28T02:33:30;6.50;99.90
44487;DHT22;30191;50.908;6.962;2024-02-28T02:35:56;6.60;99.90
44487;DHT22;30191;50.908;6.962;2024-02-28T02:38:22;6.60;99.90
44487;DHT22;30191;50.908;6.962;2024-02-28T02:40:51;6.70;99.90
44487;DHT22;30191;50.908;6.962;2024-02-28T02:43:16;6.70;99.90
44487;DHT22;30191;50.908;6.962;2024-02-28T02:45:42;6.70;99.90
44487;DHT22;30191;50.908;6.962;2024-02-28T02:48:11;6.70;99.90
44487;DHT22;30191;50.908;6.962;2024-02-28T02:50:37;6.70;99.90
44487;DHT22;30191;50.908;6.962;2024-02-28T02:53:03;6.70;99.90
44487;DHT22;30191;50.908;6.962;2024-02-28T02:55:29;6.80;99.90
44487;DHT22;30191;50.908;6.962;2024-02-28T02:57:55;6.70;99.90
44487;DHT22;30191;50.908;6.962;2024-02-28T03:00:21;6.80;99.90
44487;DHT22;30191;50.908;6.962;2024-02-28T03:02:47;6.80;99.90
44487;DHT22;30191;50.908;6.962;2024-02-28T03:05:13;6.80;99.90
44487;DHT22;30191;50.908;6.962;2024-02-28T03:07:38;6.80;99.90
44487;DHT22;30191;50.908;6.962;2024-02-28T03:10:05;7.00;99.90
44487;DHT22;30191;50.908;6.962;2024-02-28T03:12:31;6.90;99.90
44487;DHT22;30191;50.908;6.962;2024-02-28T03:14:56;6.90;99.90
44487;DHT22;30191;50.908;6.962;2024-02-28T03:17:22;6.80;99.90
44487;DHT22;30191;50.908;6.962;2024-02-28T03:19:48;6.80;99.90
44487;DHT22;30191;50.908;6.962;2024-02-28T03:22:14;6.80;99.90
44487;DHT22;30191;50.908;6.962;2024-02-28T03:24:39;6.80;99.90
44487;DHT22;30191;50.908;6.962;2024-02-28T03:27:05;6.80;99.90
44487;DHT22;30191;50.908;6.962;2024-02-28T03:29:31;6.90;99.90
44487;DHT22;30191;50.908;6.962;2024-02-28T03:31:57;6.80;99.90
44487;DHT22;30191;50.908;6.962;2024-02-28T03:34:23;6.80;99.90
44487;DHT22;30191;50.908;6.962;2024-02-28T03:36:49;6.80;99.90
44487;DHT22;30191;50.908;6.962;2024-02-28T03:39:14;6.70;99.90
44487;DHT22;30191;50.908;6.962;2024-02-28T03:41:40;6.70;99.90
44487;DHT22;30191;50.908;6.962;2024-02-28T03:44:06;6.70;99.90
44487;DHT22;30191;50.908;6.962;2024-02-28T03:46:32;6.80;99.90
44487;DHT22;30191;50.908;6.962;2024-02-28T03:48:57;6.70;99.90
44487;DHT22;30191;50.908;6.962;2024-02-28T03:51:23;6.60;99.90
44487;DHT22;30191;50.908;6.962;2024-02-28T03:53:49;6.60;99.90
44487;DHT22;30191;50.908;6.962;2024-02-28T03:56:22;6.70;99.90
44487;DHT22;30191;50.908;6.962;2024-02-28T03:58:49;6.70;99.90
44487;DHT22;30191;50.908;6.962;2024-02-28T04:01:14;6.80;99.90
44487;DHT22;30191;50.908;6.962;2024-02-28T04:03:40;6.90;99.90
44487;DHT22;30191;50.908;6.962;2024-02-28T04:06:06;6.90;99.90
44487;DHT22;30191;50.908;6.962;2024-02-28T04:08:32;6.90;99.90
44487;DHT22;30191;50.908;6.962;2024-02-28T04:10:57;6.90;99.90
44487;DHT22;30191;50.908;6.962;2024-02-28T04:13:23;6.80;99.90
44487;DHT22;30191;50.908;6.962;2024-02-28T04:15:48;6.80;99.90
44487;DHT22;30191;50.908;6.962;2024-02-28T04:18:14;6.70;99.90
44487;DHT22;30191;50.908;6.962;2024-02-28T04:20:40;6.70;99.90
44487;DHT22;30191;50.908;6.962;2024-02-28T04:23:05;6.70;99.90
44487;DHT22;30191;50.908;6.962;2024-02-28T04:25:32;6.70;99.90
44487;DHT22;30191;50.908;6.962;2024-02-28T04:27:58;6.70;99.90
44487;DHT22;30191;50.908;6.962;2024-02-28T04:30:23;6.60;99.90
44487;DHT22;30191;50.908;6.962;2024-02-28T04:32:49;6.70;99.90
44487;DHT22;30191;50.908;6.962;2024-02-28T04:35:15;6.70;99.90
44487;DHT22;30191;50.908;6.962;2024-02-28T04:37:46;6.70;99.90
44487;DHT22;30191;50.908;6.962;2024-02-28T04:40:12;6.70;99.90
44487;DHT22;30191;50.908;6.962;2024-02-28T04:42:39;6.70;99.90
44487;DHT22;30191;50.908;6.962;2024-02-28T04:45:05;6.80;99.90
44487;DHT22;30191;50.908;6.962;2024-02-28T04:47:31;6.70;99.90
44487;DHT22;30191;50.908;6.962;2024-02-28T04:49:57;6.70;99.90
44487;DHT22;30191;50.908;6.962;2024-02-28T04:52:23;6.70;99.90
44487;DHT22;30191;50.908;6.962;2024-02-28T04:54:50;6.70;99.90
44487;DHT22;30191;50.908;6.962;2024-02-28T04:57:16;6.60;99.90
44487;DHT22;30191;50.908;6.962;2024-02-28T04:59:42;6.70;99.90
44487;DHT22;30191;50.908;6.962;2024-02-28T05:02:08;6.70;99.90
44487;DHT22;30191;50.908;6.962;2024-02-28T05:04:34;6.70;99.90
44487;DHT22;30191;50.908;6.962;2024-02-28T05:06:59;6.70;99.90
44487;DHT22;30191;50.908;6.962;2024-02-28T05:09:25;6.70;99.90
44487;DHT22;30191;50.908;6.962;2024-02-28T05:11:51;6.70;99.90
44487;DHT22;30191;50.908;6.962;2024-02-28T05:14:16;6.80;99.90
44487;DHT22;30191;50.908;6.962;2024-02-28T05:16:42;6.80;99.90
44487;DHT22;30191;50.908;6.962;2024-02-28T05:19:07;6.80;99.90
44487;DHT22;30191;50.908;6.962;2024-02-28T05:21:40;6.90;99.90
44487;DHT22;30191;50.908;6.962;2024-02-28T05:24:07;6.90;99.90
44487;DHT22;30191;50.908;6.962;2024-02-28T05:26:36;6.80;99.90
44487;DHT22;30191;50.908;6.962;2024-02-28T05:29:03;6.70;99.90
44487;DHT22;30191;50.908;6.962;2024-02-28T05:31:29;6.70;99.90
44487;DHT22;30191;50.908;6.962;2024-02-28T05:33:57;6.60;99.90
44487;DHT22;30191;50.908;6.962;2024-02-28T05:36:24;6.60;99.90
44487;DHT22;30191;50.908;6.962;2024-02-28T05:38:50;6.60;99.90
44487;DHT22;30191;50.908;6.962;2024-02-28T05:41:17;6.60;99.90
44487;DHT22;30191;50.908;6.962;2024-02-28T05:43:43;6.70;99.90
44487;DHT22;30191;50.908;6.962;2024-02-28T05:46:09;6.70;99.90
44487;DHT22;30191;50.908;6.962;2024-02-28T05:48:35;6.70;99.90
44487;DHT22;30191;50.908;6.962;2024-02-28T05:51:01;6.60;99.90
44487;DHT22;30191;50.908;6.962;2024-02-28T05:53:27;6.60;99.90
44487;DHT22;30191;50.908;6.962;2024-02-28T05:55:53;6.70;99.90
44487;DHT22;30191;50.908;6.962;2024-02-28T05:58:22;6.70;99.90
44487;DHT22;30191;50.908;6.962;2024-02-28T06:00:49;6.70;99.90
44487;DHT22;30191;50.908;6.962;2024-02-28T06:03:14;6.80;99.90
44487;DHT22;30191;50.908;6.962;2024-02-28T06:05:40;6.90;99.90
44487;DHT22;30191;50.908;6.962;2024-02-28T06:08:06;6.80;99.90
44487;DHT22;30191;50.908;6.962;2024-02-28T06:10:32;6.80;99.90
44487;DHT22;30191;50.908;6.962;2024-02-28T06:12:57;7.00;99.90
44487;DHT22;30191;50.908;6.962;2024-02-28T06:15:23;7.00;99.90
44487;DHT22;30191;50.908;6.962;2024-02-28T06:17:49;7.00;99.90
44487;DHT22;30191;50.908;6.962;2024-02-28T06:20:14;6.80;99.90
44487;DHT22;30191;50.908;6.962;2024-02-28T06:22:40;6.70;99.90
44487;DHT22;30191;50.908;6.962;2024-02-28T06:25:06;6.80;99.90
44487;DHT22;30191;50.908;6.962;2024-02-28T06:27:39;6.70;99.90
44487;DHT22;30191;50.908;6.962;2024-02-28T06:30:06;6.60;99.90
44487;DHT22;30191;50.908;6.962;2024-02-28T06:32:32;6.50;99.90
44487;DHT22;30191;50.908;6.962;2024-02-28T06:34:58;6.40;99.90
44487;DHT22;30191;50.908;6.962;2024-02-28T06:37:23;6.30;99.90
44487;DHT22;30191;50.908;6.962;2024-02-28T06:39:49;6.40;99.90
44487;DHT22;30191;50.908;6.962;2024-02-28T06:42:14;6.40;99.90
44487;DHT22;30191;50.908;6.962;2024-02-28T06:44:40;6.50;99.90
44487;DHT22;30191;50.908;6.962;2024-02-28T06:47:07;6.40;99.90
44487;DHT22;30191;50.908;6.962;2024-02-28T06:49:33;6.40;99.90
44487;DHT22;30191;50.908;6.962;2024-02-28T06:51:58;6.40;99.90
44487;DHT22;30191;50.908;6.962;2024-02-28T06:54:27;6.40;99.90
44487;DHT22;30191;50.908;6.962;2024-02-28T06:56:52;6.40;99.90
44487;DHT22;30191;50.908;6.962;2024-02-28T06:59:18;6.50;99.90
44487;DHT22;30191;50.908;6.962;2024-02-28T07:01:43;6.60;99.90
44487;DHT22;30191;50.908;6.962;2024-02-28T07:04:09;6.60;99.90
44487;DHT22;30191;50.908;6.962;2024-02-28T07:06:35;6.70;99.90
44487;DHT22;30191;50.908;6.962;2024-02-28T07:09:00;6.70;99.90
44487;DHT22;30191;50.908;6.962;2024-02-28T07:11:26;6.60;99.90
44487;DHT22;30191;50.908;6.962;2024-02-28T07:13:52;6.60;99.90
44487;DHT22;30191;50.908;6.962;2024-02-28T07:16:17;6.60;99.90
44487;DHT22;30191;50.908;6.962;2024-02-28T07:18:43;6.60;99.90
44487;DHT22;30191;50.908;6.962;2024-02-28T07:21:08;6.60;99.90
44487;DHT22;30191;50.908;6.962;2024-02-28T07:23:34;6.60;99.90
44487;DHT22;30191;50.908;6.962;2024-02-28T07:26:00;6.60;99.90
44487;DHT22;30191;50.908;6.962;2024-02-28T07:28:25;6.60;99.90
44487;DHT22;30191;50.908;6.962;2024-02-28T07:30:51;6.70;99.90
44487;DHT22;30191;50.908;6.962;2024-02-28T07:33:17;6.70;99.90
44487;DHT22;30191;50.908;6.962;2024-02-28T07:35:51;6.70;99.90
44487;DHT22;30191;50.908;6.962;2024-02-28T07:38:17;6.80;99.90
44487;DHT22;30191;50.908;6.962;2024-02-28T07:40:45;6.70;99.90
44487;DHT22;30191;50.908;6.962;2024-02-28T07:43:11;6.70;99.90
44487;DHT22;30191;50.908;6.962;2024-02-28T07:45:37;6.70;99.90
44487;DHT22;30191;50.908;6.962;2024-02-28T07:48:02;6.70;99.90
44487;DHT22;30191;50.908;6.962;2024-02-28T07:50:28;6.70;99.90
44487;DHT22;30191;50.908;6.962;2024-02-28T07:52:55;6.70;99.90
44487;DHT22;30191;50.908;6.962;2024-02-28T07:55:20;6.70;99.90
44487;DHT22;30191;50.908;6.962;2024-02-28T07:57:51;6.80;99.90
44487;DHT22;30191;50.908;6.962;2024-02-28T08:00:16;6.80;99.90
44487;DHT22;30191;50.908;6.962;2024-02-28T08:02:44;6.80;99.90
44487;DHT22;30191;50.908;6.962;2024-02-28T08:05:10;6.80;99.90
44487;DHT22;30191;50.908;6.962;2024-02-28T08:07:35;6.80;99.90
44487;DHT22;30191;50.908;6.962;2024-02-28T08:10:02;6.80;99.90
44487;DHT22;30191;50.908;6.962;2024-02-28T08:12:30;6.90;99.90
44487;DHT22;30191;50.908;6.962;2024-02-28T08:14:56;6.90;99.90
44487;DHT22;30191;50.908;6.962;2024-02-28T08:17:22;7.00;99.90
44487;DHT22;30191;50.908;6.962;2024-02-28T08:19:47;7.00;99.90
44487;DHT22;30191;50.908;6.962;2024-02-28T08:22:13;7.10;99.90
44487;DHT22;30191;50.908;6.962;2024-02-28T08:24:38;7.10;99.90
44487;DHT22;30191;50.908;6.962;2024-02-28T08:27:05;7.10;99.90
44487;DHT22;30191;50.908;6.962;2024-02-28T08:29:30;7.20;99.90
44487;DHT22;30191;50.908;6.962;2024-02-28T08:31:58;7.20;99.90
44487;DHT22;30191;50.908;6.962;2024-02-28T08:34:23;7.20;99.90
44487;DHT22;30191;50.908;6.962;2024-02-28T08:36:49;7.30;99.90
44487;DHT22;30191;50.908;6.962;2024-02-28T08:39:15;7.30;99.90
44487;DHT22;30191;50.908;6.962;2024-02-28T08:41:40;7.40;99.90
44487;DHT22;30191;50.908;6.962;2024-02-28T08:44:06;7.40;99.90
44487;DHT22;30191;50.908;6.962;2024-02-28T08:46:31;7.50;99.90
44487;DHT22;30191;50.908;6.962;2024-02-28T08:48:57;7.50;99.90
44487;DHT22;30191;50.908;6.962;2024-02-28T08:51:23;7.50;99.90
44487;DHT22;30191;50.908;6.962;2024-02-28T08:53:48;7.50;99.90
44487;DHT22;30191;50.908;6.962;2024-02-28T08:56:14;7.60;99.90
44487;DHT22;30191;50.908;6.962;2024-02-28T08:58:39;7.60;99.90
44487;DHT22;30191;50.908;6.962;2024-02-28T09:01:05;7.70;99.90
44487;DHT22;30191;50.908;6.962;2024-02-28T09:03:31;7.70;99.90
44487;DHT22;30191;50.908;6.962;2024-02-28T09:05:57;7.70;99.90
44487;DHT22;30191;50.908;6.962;2024-02-28T09:08:22;7.70;99.90
44487;DHT22;30191;50.908;6.962;2024-02-28T09:10:48;7.70;99.90
44487;DHT22;30191;50.908;6.962;2024-02-28T09:13:13;7.70;99.90
44487;DHT22;30191;50.908;6.962;2024-02-28T09:15:39;7.80;99.90
44487;DHT22;30191;50.908;6.962;2024-02-28T09:18:05;7.80;99.90
44487;DHT22;30191;50.908;6.962;2024-02-28T09:20:31;7.90;99.90
44487;DHT22;30191;50.908;6.962;2024-02-28T09:22:56;7.90;99.90
44487;DHT22;30191;50.908;6.962;2024-02-28T09:25:22;7.90;99.90
44487;DHT22;30191;50.908;6.962;2024-02-28T09:27:48;7.90;99.90
44487;DHT22;30191;50.908;6.962;2024-02-28T09:30:13;8.00;99.90
44487;DHT22;30191;50.908;6.962;2024-02-28T09:32:39;8.00;99.90
44487;DHT22;30191;50.908;6.962;2024-02-28T09:35:05;8.00;99.90
44487;DHT22;30191;50.908;6.962;2024-02-28T09:37:32;8.00;99.90
44487;DHT22;30191;50.908;6.962;2024-02-28T09:39:57;8.10;99.90
44487;DHT22;30191;50.908;6.962;2024-02-28T09:42:24;8.20;99.90
44487;DHT22;30191;50.908;6.962;2024-02-28T09:44:49;8.20;99.90
44487;DHT22;30191;50.908;6.962;2024-02-28T09:47:15;8.20;99.90
44487;DHT22;30191;50.908;6.962;2024-02-28T09:49:45;8.20;99.90
44487;DHT22;30191;50.908;6.962;2024-02-28T09:52:14;8.20;99.90
44487;DHT22;30191;50.908;6.962;2024-02-28T09:54:41;8.40;99.90
44487;DHT22;30191;50.908;6.962;2024-02-28T09:57:11;8.40;99.90
44487;DHT22;30191;50.908;6.962;2024-02-28T09:59:37;8.40;99.90
44487;DHT22;30191;50.908;6.962;2024-02-28T10:02:04;8.40;99.90
44487;DHT22;30191;50.908;6.962;2024-02-28T10:04:30;8.30;99.90
44487;DHT22;30191;50.908;6.962;2024-02-28T10:06:56;8.40;99.90
44487;DHT22;30191;50.908;6.962;2024-02-28T10:09:22;8.40;99.90
44487;DHT22;30191;50.908;6.962;2024-02-28T10:11:48;8.40;99.90
44487;DHT22;30191;50.908;6.962;2024-02-28T10:14:22;8.40;99.90
44487;DHT22;30191;50.908;6.962;2024-02-28T10:16:48;8.50;99.90
44487;DHT22;30191;50.908;6.962;2024-02-28T10:19:14;8.50;99.90
44487;DHT22;30191;50.908;6.962;2024-02-28T10:21:39;8.50;99.90
44487;DHT22;30191;50.908;6.962;2024-02-28T10:24:05;8.50;99.90
44487;DHT22;30191;50.908;6.962;2024-02-28T10:26:31;8.60;99.90
44487;DHT22;30191;50.908;6.962;2024-02-28T10:29:03;8.60;99.90
44487;DHT22;30191;50.908;6.962;2024-02-28T10:31:32;8.60;99.90
44487;DHT22;30191;50.908;6.962;2024-02-28T10:33:59;8.70;99.90
44487;DHT22;30191;50.908;6.962;2024-02-28T10:36:26;8.80;99.90
44487;DHT22;30191;50.908;6.962;2024-02-28T10:38:55;8.90;99.90
44487;DHT22;30191;50.908;6.962;2024-02-28T10:41:21;8.80;99.90
44487;DHT22;30191;50.908;6.962;2024-02-28T10:43:48;8.80;99.90
44487;DHT22;30191;50.908;6.962;2024-02-28T10:46:16;8.80;99.90
44487;DHT22;30191;50.908;6.962;2024-02-28T10:48:42;8.80;99.90
44487;DHT22;30191;50.908;6.962;2024-02-28T10:51:08;8.90;99.90
44487;DHT22;30191;50.908;6.962;2024-02-28T10:53:41;8.90;99.90
44487;DHT22;30191;50.908;6.962;2024-02-28T10:56:09;8.90;99.90
44487;DHT22;30191;50.908;6.962;2024-02-28T10:58:36;8.90;99.90
44487;DHT22;30191;50.908;6.962;2024-02-28T11:01:03;9.00;99.90
44487;DHT22;30191;50.908;6.962;2024-02-28T11:03:30;9.00;99.90
44487;DHT22;30191;50.908;6.962;2024-02-28T11:05:56;9.00;99.90
44487;DHT22;30191;50.908;6.962;2024-02-28T11:08:27;9.00;99.90
44487;DHT22;30191;50.908;6.962;2024-02-28T11:10:57;9.10;99.90
44487;DHT22;30191;50.908;6.962;2024-02-28T11:13:24;9.00;99.90
44487;DHT22;30191;50.908;6.962;2024-02-28T11:15:50;9.10;99.90
44487;DHT22;30191;50.908;6.962;2024-02-28T11:18:16;9.10;99.90
44487;DHT22;30191;50.908;6.962;2024-02-28T11:20:41;9.10;99.90
44487;DHT22;30191;50.908;6.962;2024-02-28T11:23:09;9.20;99.90
44487;DHT22;30191;50.908;6.962;2024-02-28T11:25:35;9.20;99.90
44487;DHT22;30191;50.908;6.962;2024-02-28T11:28:01;9.30;99.90
44487;DHT22;30191;50.908;6.962;2024-02-28T11:30:27;9.30;99.90
44487;DHT22;30191;50.908;6.962;2024-02-28T11:32:53;9.30;99.90
44487;DHT22;30191;50.908;6.962;2024-02-28T11:35:19;9.30;99.90
44487;DHT22;30191;50.908;6.962;2024-02-28T11:37:46;9.30;99.90
44487;DHT22;30191;50.908;6.962;2024-02-28T11:40:14;9.40;99.90
44487;DHT22;30191;50.908;6.962;2024-02-28T11:42:40;9.30;99.90
44487;DHT22;30191;50.908;6.962;2024-02-28T11:45:09;9.30;99.90
44487;DHT22;30191;50.908;6.962;2024-02-28T11:47:35;9.40;99.90
44487;DHT22;30191;50.908;6.962;2024-02-28T11:50:02;9.50;99.90
44487;DHT22;30191;50.908;6.962;2024-02-28T11:52:30;9.60;99.90
44487;DHT22;30191;50.908;6.962;2024-02-28T11:54:56;9.60;99.90
44487;DHT22;30191;50.908;6.962;2024-02-28T11:57:22;9.70;99.90
44487;DHT22;30191;50.908;6.962;2024-02-28T11:59:48;9.80;99.90
44487;DHT22;30191;50.908;6.962;2024-02-28T12:02:15;9.80;99.90
44487;DHT22;30191;50.908;6.962;2024-02-28T12:04:42;9.80;99.90
44487;DHT22;30191;50.908;6.962;2024-02-28T12:07:11;9.90;99.90
44487;DHT22;30191;50.908;6.962;2024-02-28T12:09:37;9.90;99.90
44487;DHT22;30191;50.908;6.962;2024-02-28T12:12:04;9.90;99.90
44487;DHT22;30191;50.908;6.962;2024-02-28T12:14:32;9.90;99.90
44487;DHT22;30191;50.908;6.962;2024-02-28T12:17:01;10.00;99.90
44487;DHT22;30191;50.908;6.962;2024-02-28T12:19:27;10.00;99.90
44487;DHT22;30191;50.908;6.962;2024-02-28T12:21:54;10.10;99.90
44487;DHT22;30191;50.908;6.962;2024-02-28T12:24:20;10.20;99.90
44487;DHT22;30191;50.908;6.962;2024-02-28T12:26:46;10.30;99.90
44487;DHT22;30191;50.908;6.962;2024-02-28T12:29:12;10.40;99.90
44487;DHT22;30191;50.908;6.962;2024-02-28T12:31:38;10.40;99.90
44487;DHT22;30191;50.908;6.962;2024-02-28T12:34:04;10.60;99.90
44487;DHT22;30191;50.908;6.962;2024-02-28T12:36:30;10.60;99.90
44487;DHT22;30191;50.908;6.962;2024-02-28T12:38:56;10.80;99.90
44487;DHT22;30191;50.908;6.962;2024-02-28T12:41:23;10.90;99.90
44487;DHT22;30191;50.908;6.962;2024-02-28T12:43:48;11.00;99.90
44487;DHT22;30191;50.908;6.962;2024-02-28T12:46:15;11.10;99.90
44487;DHT22;30191;50.908;6.962;2024-02-28T12:48:41;11.20;99.90
44487;DHT22;30191;50.908;6.962;2024-02-28T12:51:08;11.10;99.90
44487;DHT22;30191;50.908;6.962;2024-02-28T12:53:35;11.20;99.90
44487;DHT22;30191;50.908;6.962;2024-02-28T12:56:01;11.30;99.90
44487;DHT22;30191;50.908;6.962;2024-02-28T12:58:27;11.40;99.90
44487;DHT22;30191;50.908;6.962;2024-02-28T13:00:53;11.50;99.90
44487;DHT22;30191;50.908;6.962;2024-02-28T13:03:19;11.60;99.90
44487;DHT22;30191;50.908;6.962;2024-02-28T13:05:44;11.70;99.90
44487;DHT22;30191;50.908;6.962;2024-02-28T13:08:10;11.80;99.90
44487;DHT22;30191;50.908;6.962;2024-02-28T13:10:36;11.80;99.90
44487;DHT22;30191;50.908;6.962;2024-02-28T13:13:06;12.00;99.90
44487;DHT22;30191;50.908;6.962;2024-02-28T13:15:33;12.10;99.90
44487;DHT22;30191;50.908;6.962;2024-02-28T13:17:58;12.10;99.90
44487;DHT22;30191;50.908;6.962;2024-02-28T13:20:24;12.30;99.90
44487;DHT22;30191;50.908;6.962;2024-02-28T13:22:50;12.40;99.90
44487;DHT22;30191;50.908;6.962;2024-02-28T13:25:16;12.40;99.90
44487;DHT22;30191;50.908;6.962;2024-02-28T13:27:45;12.40;99.90
44487;DHT22;30191;50.908;6.962;2024-02-28T13:30:11;12.50;99.90
44487;DHT22;30191;50.908;6.962;2024-02-28T13:32:37;12.70;99.90
44487;DHT22;30191;50.908;6.962;2024-02-28T13:35:02;12.80;99.90
44487;DHT22;30191;50.908;6.962;2024-02-28T13:37:28;13.00;99.90
44487;DHT22;30191;50.908;6.962;2024-02-28T13:39:54;13.30;99.90
44487;DHT22;30191;50.908;6.962;2024-02-28T13:42:19;13.50;99.90
44487;DHT22;30191;50.908;6.962;2024-02-28T13:44:46;13.70;99.90
44487;DHT22;30191;50.908;6.962;2024-02-28T13:47:14;13.90;99.90
44487;DHT22;30191;50.908;6.962;2024-02-28T13:49:40;14.10;99.90
44487;DHT22;30191;50.908;6.962;2024-02-28T13:52:06;14.30;99.90
44487;DHT22;30191;50.908;6.962;2024-02-28T13:54:31;14.50;99.90
44487;DHT22;30191;50.908;6.962;2024-02-28T13:56:57;14.50;99.00
44487;DHT22;30191;50.908;6.962;2024-02-28T13:59:23;14.30;99.60
44487;DHT22;30191;50.908;6.962;2024-02-28T14:01:50;14.20;99.90
44487;DHT22;30191;50.908;6.962;2024-02-28T14:04:15;14.20;99.90
44487;DHT22;30191;50.908;6.962;2024-02-28T14:06:41;14.10;99.90
44487;DHT22;30191;50.908;6.962;2024-02-28T14:09:07;14.00;99.90
44487;DHT22;30191;50.908;6.962;2024-02-28T14:11:32;13.90;99.90
44487;DHT22;30191;50.908;6.962;2024-02-28T14:13:58;13.80;99.90
44487;DHT22;30191;50.908;6.962;2024-02-28T14:16:24;13.80;99.90
44487;DHT22;30191;50.908;6.962;2024-02-28T14:18:50;13.80;99.90
44487;DHT22;30191;50.908;6.962;2024-02-28T14:21:16;13.80;99.40
44487;DHT22;30191;50.908;6.962;2024-02-28T14:23:42;13.70;99.70
44487;DHT22;30191;50.908;6.962;2024-02-28T14:26:08;13.70;99.90
44487;DHT22;30191;50.908;6.962;2024-02-28T14:28:34;13.70;99.80
44487;DHT22;30191;50.908;6.962;2024-02-28T14:31:00;13.70;99.90
44487;DHT22;30191;50.908;6.962;2024-02-28T14:33:25;13.80;99.90
44487;DHT22;30191;50.908;6.962;2024-02-28T14:35:51;13.80;99.80
44487;DHT22;30191;50.908;6.962;2024-02-28T14:38:17;13.90;99.50
44487;DHT22;30191;50.908;6.962;2024-02-28T14:40:43;13.90;99.70
44487;DHT22;30191;50.908;6.962;2024-02-28T14:43:08;14.00;99.90
44487;DHT22;30191;50.908;6.962;2024-02-28T14:45:34;14.00;99.90
44487;DHT22;30191;50.908;6.962;2024-02-28T14:48:00;14.10;99.90
44487;DHT22;30191;50.908;6.962;2024-02-28T14:50:26;14.00;99.90
44487;DHT22;30191;50.908;6.962;2024-02-28T14:52:51;14.10;99.90
44487;DHT22;30191;50.908;6.962;2024-02-28T14:55:17;14.00;99.90
44487;DHT22;30191;50.908;6.962;2024-02-28T14:57:43;14.00;99.90
44487;DHT22;30191;50.908;6.962;2024-02-28T15:00:10;13.90;99.90
44487;DHT22;30191;50.908;6.962;2024-02-28T15:02:45;13.80;99.90
44487;DHT22;30191;50.908;6.962;2024-02-28T15:05:14;13.60;99.90
44487;DHT22;30191;50.908;6.962;2024-02-28T15:07:40;13.20;99.90
44487;DHT22;30191;50.908;6.962;2024-02-28T15:10:07;13.10;99.90
44487;DHT22;30191;50.908;6.962;2024-02-28T15:12:33;13.00;99.90
44487;DHT22;30191;50.908;6.962;2024-02-28T15:15:03;13.00;99.90
44487;DHT22;30191;50.908;6.962;2024-02-28T15:17:29;12.90;99.90
44487;DHT22;30191;50.908;6.962;2024-02-28T15:19:55;12.90;99.90
44487;DHT22;30191;50.908;6.962;2024-02-28T15:22:21;12.90;99.90
44487;DHT22;30191;50.908;6.962;2024-02-28T15:24:47;12.80;99.90
44487;DHT22;30191;50.908;6.962;2024-02-28T15:27:13;12.70;99.90
44487;DHT22;30191;50.908;6.962;2024-02-28T15:29:38;12.80;99.90
44487;DHT22;30191;50.908;6.962;2024-02-28T15:32:06;12.80;99.90
44487;DHT22;30191;50.908;6.962;2024-02-28T15:34:31;12.80;99.90